Time;durP1;ratioP1;P1;durP2;ratioP2;P2;SDS_P1;SDS_P2;PMS_P1;PMS_P2;Temp;Humidity;BMP_temperature;BMP_pressure;BME280_temperature;BME280_humidity;BME280_pressure;Samples;Min_cycle;Max_cycle;Signal;HPM_P1;HPM_P2
2023/12/09 00:19:00;;;;;;;46.22;15.70;;;;;;;;;;4976280;28;20073;-70
2023/12/09 00:21:27;;;;;;;55.70;19.20;;;;;;;;;;4975302;28;20505;-70
2023/12/09 00:24:01;;;;;;;54.70;20.17;;;;;;;;;;4979820;28;20054;-60
2023/12/09 00:26:35;;;;;;;50.90;19.95;;;;;;;;;;4973982;28;20058;-60
2023/12/09 00:29:09;;;;;;;58.35;21.80;;;;;;;;;;4975101;28;20061;-59
2023/12/09 00:31:36;;;;;;;56.45;22.02;;;;;;;;;;4976420;28;20054;-59
2023/12/09 00:34:03;;;;;;;60.55;21.10;;;;;;;;;;4976838;28;20061;-59
2023/12/09 00:36:38;;;;;;;58.92;20.67;;;;;;;;;;4973225;28;20592;-59
2023/12/09 00:39:05;;;;;;;;;;;;;;;;;;4979601;28;20058;-58
2023/12/09 00:41:39;;;;;;;54.22;18.92;;;;;;;;;;4975504;28;20384;-56
2023/12/09 00:44:06;;;;;;;55.83;21.15;;;;;;;;;;4977145;28;20078;-57
2023/12/09 00:46:33;;;;;;;59.90;20.13;;;;;;;;;;4973149;28;20113;-57
2023/12/09 00:49:07;;;;;;;55.00;20.52;;;;;;;;;;4959093;28;20509;-58
2023/12/09 00:51:34;;;;;;;;;;;;;;;;;;4976650;28;20442;-58
2023/12/09 00:54:01;;;;;;;58.75;19.25;;;;;;;;;;4981206;28;19925;-58
2023/12/09 00:56:35;;;;;;;61.20;20.95;;;;;;;;;;4972227;28;20116;-58
2023/12/09 00:59:03;;;;;;;62.70;22.17;;;;;;;;;;4978029;28;20062;-58
2023/12/09 01:01:37;;;;;;;55.20;21.27;;;;;;;;;;4976704;28;20140;-59
2023/12/09 01:04:06;;;;;;;63.50;21.55;;;;;;;;;;4983330;28;20494;-52
2023/12/09 01:06:40;;;;;;;58.95;19.75;;;;;;;;;;4979643;28;20797;-71
2023/12/09 01:09:08;;;;;;;54.80;20.55;;;;;;;;;;4983198;28;20053;-70
2023/12/09 01:11:35;;;;;;;59.40;20.30;;;;;;;;;;4978667;28;20105;-70
2023/12/09 01:14:09;;;;;;;62.22;20.63;;;;;;;;;;4981731;28;20066;-70
2023/12/09 01:16:49;;;;;;;61.70;21.58;;;;;;;;;;4979280;28;20219;-70
2023/12/09 01:19:23;;;;;;;52.03;20.40;;;;;;;;;;4979872;28;20050;-71
2023/12/09 01:21:57;;;;;;;53.70;19.33;;;;;;;;;;4981697;28;20148;-60
2023/12/09 01:24:31;;;;;;;52.78;20.27;;;;;;;;;;4984229;28;20050;-60
2023/12/09 01:26:58;;;;;;;;;;;;;;;;;;4982379;28;20073;-60
2023/12/09 01:29:26;;;;;;;49.78;17.17;;;;;;;;;;4983691;28;19922;-65
2023/12/09 01:32:00;;;;;;;52.28;18.27;;;;;;;;;;4977842;28;20109;-60
2023/12/09 01:34:27;;;;;;;50.85;18.80;;;;;;;;;;4979461;28;20121;-58
2023/12/09 01:37:01;;;;;;;52.47;19.65;;;;;;;;;;4982330;28;20053;-57
2023/12/09 01:39:29;;;;;;;47.00;18.30;;;;;;;;;;4981698;28;20185;-59
2023/12/09 01:41:57;;;;;;;50.25;16.48;;;;;;;;;;4979349;28;20057;-57
2023/12/09 01:44:31;;;;;;;30.35;13.15;;;;;;;;;;4983460;28;20054;-57
2023/12/09 01:46:58;;;;;;;45.88;18.75;;;;;;;;;;4982267;28;20201;-59
2023/12/09 01:49:32;;;;;;;48.20;19.25;;;;;;;;;;4979728;28;20054;-59
2023/12/09 01:52:00;;;;;;;44.58;18.08;;;;;;;;;;4983350;28;20642;-60
2023/12/09 01:54:34;;;;;;;45.08;17.77;;;;;;;;;;4985309;28;20061;-60
2023/12/09 01:57:03;;;;;;;43.42;14.63;;;;;;;;;;4979246;28;20078;-59
2023/12/09 01:59:30;;;;;;;44.85;17.42;;;;;;;;;;4980747;28;20057;-60
2023/12/09 02:02:05;;;;;;;43.58;14.25;;;;;;;;;;4982188;28;20058;-65
2023/12/09 02:04:32;;;;;;;48.33;16.48;;;;;;;;;;4981567;28;20159;-54
2023/12/09 02:07:06;;;;;;;47.85;17.63;;;;;;;;;;4983761;28;20180;-58
2023/12/09 02:09:33;;;;;;;36.83;16.55;;;;;;;;;;4984053;28;20054;-58
2023/12/09 02:12:15;;;;;;;38.55;16.58;;;;;;;;;;4980684;28;20501;-57
2023/12/09 02:14:48;;;;;;;33.63;14.07;;;;;;;;;;4980035;28;20069;-60
2023/12/09 02:17:41;;;;;;;44.00;16.85;;;;;;;;;;4977495;28;20140;-71
2023/12/09 02:20:15;;;;;;;43.50;17.33;;;;;;;;;;4975850;28;20065;-71
2023/12/09 02:22:49;;;;;;;40.67;17.25;;;;;;;;;;4974358;28;20054;-71
2023/12/09 02:25:16;;;;;;;30.73;12.50;;;;;;;;;;4984319;28;20073;-71
2023/12/09 02:27:50;;;;;;;37.17;16.08;;;;;;;;;;4977885;28;20054;-52
2023/12/09 02:30:28;;;;;;;45.90;18.02;;;;;;;;;;4978112;28;20532;-51
2023/12/09 02:32:58;;;;;;;42.83;17.02;;;;;;;;;;4976865;28;20124;-59
2023/12/09 02:35:35;;;;;;;38.95;17.15;;;;;;;;;;4981184;28;20101;-58
2023/12/09 02:38:03;;;;;;;45.67;17.50;;;;;;;;;;4981131;28;20058;-58
2023/12/09 02:40:38;;;;;;;30.80;13.27;;;;;;;;;;4978959;28;20116;-59
2023/12/09 02:43:05;;;;;;;35.70;16.25;;;;;;;;;;4980659;28;20168;-57
2023/12/09 02:45:33;;;;;;;34.25;14.00;;;;;;;;;;4977007;28;20084;-59
2023/12/09 02:48:07;;;;;;;44.25;17.92;;;;;;;;;;4978876;28;20050;-60
2023/12/09 02:50:36;;;;;;;;;;;;;;;;;;4978907;28;20053;-60
2023/12/09 02:53:10;;;;;;;24.25;10.52;;;;;;;;;;4976266;28;20320;-60
2023/12/09 02:55:37;;;;;;;42.78;18.77;;;;;;;;;;4978188;28;20112;-60
2023/12/09 02:58:04;;;;;;;33.00;14.68;;;;;;;;;;4975894;28;20058;-57
2023/12/09 03:00:38;;;;;;;36.55;18.90;;;;;;;;;;4975870;28;20136;-54
2023/12/09 03:03:05;;;;;;;35.03;16.40;;;;;;;;;;4977383;28;20097;-55
2023/12/09 03:05:39;;;;;;;36.40;16.45;;;;;;;;;;4980765;28;20097;-56
2023/12/09 03:08:07;;;;;;;;;;;;;;;;;;4995486;28;20429;-54
2023/12/09 03:10:34;;;;;;;34.90;15.57;;;;;;;;;;4980412;28;19926;-55
2023/12/09 03:13:08;;;;;;;39.92;18.30;;;;;;;;;;4979724;28;20524;-54
2023/12/09 03:15:35;;;;;;;35.30;16.17;;;;;;;;;;4976559;28;20058;-61
2023/12/09 03:18:03;;;;;;;33.17;15.43;;;;;;;;;;4976432;28;20119;-59
2023/12/09 03:20:43;;;;;;;36.60;15.95;;;;;;;;;;4977352;28;21372;-59
2023/12/09 03:23:11;;;;;;;34.38;15.70;;;;;;;;;;4977042;28;20505;-58
2023/12/09 03:25:47;;;;;;;31.20;15.63;;;;;;;;;;4974417;28;20105;-52
2023/12/09 03:28:21;;;;;;;34.00;14.85;;;;;;;;;;4978063;28;20057;-54
2023/12/09 03:30:48;;;;;;;34.88;16.95;;;;;;;;;;4974509;28;20184;-53
2023/12/09 03:33:16;;;;;;;35.28;17.33;;;;;;;;;;4975133;28;20053;-54
2023/12/09 03:35:50;;;;;;;30.98;14.27;;;;;;;;;;4986060;28;20065;-55
2023/12/09 03:38:17;;;;;;;29.35;14.38;;;;;;;;;;4976944;28;20062;-53
2023/12/09 03:40:51;;;;;;;32.17;15.07;;;;;;;;;;4973157;28;20080;-54
2023/12/09 03:43:18;;;;;;;36.58;15.55;;;;;;;;;;4978823;28;20085;-60
2023/12/09 03:45:45;;;;;;;33.20;16.05;;;;;;;;;;4971755;28;20049;-60
2023/12/09 03:48:19;;;;;;;31.75;14.65;;;;;;;;;;4975444;28;20121;-59
2023/12/09 03:50:46;;;;;;;;;;;;;;;;;;4973319;28;20141;-59
2023/12/09 03:53:20;;;;;;;31.48;15.05;;;;;;;;;;4974899;28;19945;-54
2023/12/09 03:55:49;;;;;;;27.33;12.98;;;;;;;;;;4976173;28;20505;-55
2023/12/09 03:58:16;;;;;;;29.77;14.77;;;;;;;;;;4975699;28;20572;-52
2023/12/09 04:00:50;;;;;;;27.83;11.98;;;;;;;;;;4977901;28;20855;-55
2023/12/09 04:03:18;;;;;;;32.90;14.77;;;;;;;;;;4971066;28;20108;-53
2023/12/09 04:05:46;;;;;;;30.60;14.77;;;;;;;;;;4976706;28;20050;-49
2023/12/09 04:08:20;;;;;;;27.30;11.75;;;;;;;;;;4976644;28;20054;-53
2023/12/09 04:10:47;;;;;;;28.45;15.02;;;;;;;;;;4974477;28;20111;-53
2023/12/09 04:13:21;;;;;;;29.75;13.88;;;;;;;;;;4977243;28;20460;-61
2023/12/09 04:15:49;;;;;;;33.05;15.65;;;;;;;;;;4981660;28;20916;-60
2023/12/09 04:18:23;;;;;;;29.13;15.15;;;;;;;;;;4685882;28;8183306;-59
2023/12/09 04:21:04;;;;;;;31.25;15.60;;;;;;;;;;4959504;28;20054;-59
2023/12/09 04:23:38;;;;;;;30.55;13.40;;;;;;;;;;4955467;28;20063;-61
2023/12/09 04:26:05;;;;;;;32.47;14.82;;;;;;;;;;4953722;28;20620;-71
2023/12/09 04:28:32;;;;;;;26.83;13.27;;;;;;;;;;4955714;28;20499;-71
2023/12/09 04:31:06;;;;;;;32.90;14.20;;;;;;;;;;4955548;28;20047;-71
2023/12/09 04:33:34;;;;;;;30.45;14.80;;;;;;;;;;4949263;28;20055;-71
2023/12/09 04:36:02;;;;;;;29.02;14.80;;;;;;;;;;4961607;28;20054;-71
2023/12/09 04:38:36;;;;;;;32.65;14.90;;;;;;;;;;4954537;28;20412;-70
2023/12/09 04:41:04;;;;;;;29.95;14.45;;;;;;;;;;4956225;28;20054;-66
2023/12/09 04:43:38;;;;;;;31.25;14.95;;;;;;;;;;4936984;28;20070;-66
2023/12/09 04:46:06;;;;;;;32.00;14.52;;;;;;;;;;4956103;28;20051;-66
2023/12/09 04:48:33;;;;;;;30.23;15.20;;;;;;;;;;4958334;28;20125;-66
2023/12/09 04:51:07;;;;;;;28.67;14.35;;;;;;;;;;4959233;28;21241;-59
2023/12/09 04:53:34;;;;;;;31.30;15.85;;;;;;;;;;4960289;28;20047;-52
2023/12/09 04:56:08;;;;;;;29.05;14.90;;;;;;;;;;4959326;28;20746;-54
2023/12/09 04:58:35;;;;;;;31.08;14.00;;;;;;;;;;4960861;28;20511;-53
2023/12/09 05:01:03;;;;;;;29.77;13.50;;;;;;;;;;4960608;28;20754;-54
2023/12/09 05:03:37;;;;;;;32.17;14.70;;;;;;;;;;4961606;28;20061;-55
2023/12/09 05:06:11;;;;;;;;;;;;;;;;;;4951181;28;20055;-54
2023/12/09 05:08:45;;;;;;;25.40;12.00;;;;;;;;;;4962225;28;19925;-58
2023/12/09 05:11:12;;;;;;;29.10;14.13;;;;;;;;;;4963572;28;20055;-58
2023/12/09 05:13:40;;;;;;;27.77;14.25;;;;;;;;;;4961678;28;20059;-59
2023/12/09 05:16:14;;;;;;;28.52;13.90;;;;;;;;;;4961272;28;20090;-58
2023/12/09 05:18:47;;;;;;;28.95;14.77;;;;;;;;;;4978289;28;20509;-59
2023/12/09 05:21:21;;;;;;;28.63;14.32;;;;;;;;;;4978781;28;20463;-53
2023/12/09 05:24:01;;;;;;;30.15;14.80;;;;;;;;;;4983399;28;20054;-53
2023/12/09 05:26:35;;;;;;;27.13;11.80;;;;;;;;;;4977830;28;20065;-54
2023/12/09 05:29:03;;;;;;;27.10;12.60;;;;;;;;;;4977778;28;20093;-52
2023/12/09 05:31:31;;;;;;;32.38;15.00;;;;;;;;;;4980231;28;20395;-54
2023/12/09 05:34:05;;;;;;;34.22;14.65;;;;;;;;;;4982746;28;20058;-52
2023/12/09 05:36:32;;;;;;;;;;;;;;;;;;4978820;28;20068;-60
2023/12/09 05:39:06;;;;;;;33.15;14.27;;;;;;;;;;4979689;28;19925;-60
2023/12/09 05:41:34;;;;;;;;;;;;;;;;;;4982154;28;20509;-60
2023/12/09 05:44:01;;;;;;;31.67;13.27;;;;;;;;;;4981397;28;20408;-60
2023/12/09 05:46:40;;;;;;;30.73;14.70;;;;;;;;;;4980819;28;20541;-50
2023/12/09 05:49:07;;;;;;;31.10;14.93;;;;;;;;;;4984252;28;20441;-61
2023/12/09 05:51:42;;;;;;;31.38;15.27;;;;;;;;;;4978785;28;20054;-59
2023/12/09 05:54:10;;;;;;;34.42;16.10;;;;;;;;;;4984013;28;20054;-59
2023/12/09 05:56:37;;;;;;;34.05;15.27;;;;;;;;;;4984627;28;20046;-59
2023/12/09 05:59:11;;;;;;;32.67;14.00;;;;;;;;;;4978373;28;20050;-59
2023/12/09 06:01:38;;;;;;;38.58;15.88;;;;;;;;;;4979500;28;20112;-59
2023/12/09 06:04:06;;;;;;;33.67;16.02;;;;;;;;;;4982295;28;20057;-59
2023/12/09 06:06:40;;;;;;;36.65;16.45;;;;;;;;;;4980541;28;21714;-70
2023/12/09 06:09:08;;;;;;;32.22;15.25;;;;;;;;;;4981029;28;20058;-70
2023/12/09 06:11:43;;;;;;;34.58;14.48;;;;;;;;;;4979511;28;20133;-70
2023/12/09 06:14:10;;;;;;;35.90;15.02;;;;;;;;;;4983380;28;20054;-71
2023/12/09 06:16:37;;;;;;;35.60;16.67;;;;;;;;;;4979926;28;20105;-61
2023/12/09 06:19:18;;;;;;;36.00;14.05;;;;;;;;;;4979654;28;20058;-60
2023/12/09 06:21:46;;;;;;;32.20;15.70;;;;;;;;;;4974020;28;20058;-60
2023/12/09 06:24:20;;;;;;;40.20;16.95;;;;;;;;;;4977961;28;20062;-61
2023/12/09 06:26:47;;;;;;;;;;;;;;;;;;4977287;28;20077;-60
2023/12/09 06:29:21;;;;;;;37.97;15.40;;;;;;;;;;4978597;28;20286;-60
2023/12/09 06:31:48;;;;;;;39.55;17.00;;;;;;;;;;4977512;28;20109;-61
2023/12/09 06:34:15;;;;;;;36.58;15.45;;;;;;;;;;4978965;28;20457;-60
2023/12/09 06:36:50;;;;;;;37.67;16.65;;;;;;;;;;4974905;28;20156;-60
2023/12/09 06:39:17;;;;;;;35.60;15.65;;;;;;;;;;4978251;28;20100;-60
2023/12/09 06:41:51;;;;;;;43.60;17.92;;;;;;;;;;4977411;28;20050;-60
2023/12/09 06:44:19;;;;;;;40.78;17.00;;;;;;;;;;4977676;28;20042;-61
2023/12/09 06:46:46;;;;;;;41.58;17.50;;;;;;;;;;4980189;28;20399;-61
2023/12/09 06:49:20;;;;;;;45.92;17.80;;;;;;;;;;4981110;28;20058;-60
2023/12/09 06:51:49;;;;;;;40.83;17.73;;;;;;;;;;4979426;28;20051;-60
2023/12/09 06:54:17;;;;;;;45.97;17.98;;;;;;;;;;4979420;28;20054;-61
2023/12/09 06:56:51;;;;;;;44.78;16.42;;;;;;;;;;4979823;28;20051;-60
2023/12/09 06:59:19;;;;;;;45.78;18.88;;;;;;;;;;4978943;28;20108;-61
2023/12/09 07:01:56;;;;;;;38.92;16.70;;;;;;;;;;4980500;28;20301;-53
2023/12/09 07:04:23;;;;;;;46.30;19.70;;;;;;;;;;4977677;28;20056;-51
2023/12/09 07:06:50;;;;;;;46.83;18.23;;;;;;;;;;4979672;28;20109;-52
2023/12/09 07:09:24;;;;;;;39.78;15.68;;;;;;;;;;4980146;28;20160;-55
2023/12/09 07:11:51;;;;;;;45.55;17.98;;;;;;;;;;4979231;28;20174;-59
2023/12/09 07:14:29;;;;;;;38.58;15.60;;;;;;;;;;4975657;28;20493;-59
2023/12/09 07:17:03;;;;;;;46.55;19.17;;;;;;;;;;4983526;28;20066;-59
2023/12/09 07:19:43;;;;;;;52.08;19.00;;;;;;;;;;4972389;28;20577;-58
2023/12/09 07:22:17;;;;;;;48.10;19.00;;;;;;;;;;4966181;28;20062;-57
2023/12/09 07:24:44;;;;;;;;;;;;;;;;;;4960880;28;20050;-60
2023/12/09 07:27:12;;;;;;;45.50;19.05;;;;;;;;;;4961910;28;20020;-58
2023/12/09 07:29:46;;;;;;;49.08;17.40;;;;;;;;;;4954095;28;20774;-58
2023/12/09 07:32:13;;;;;;;46.97;18.75;;;;;;;;;;4959118;28;20059;-65
2023/12/09 07:34:41;;;;;;;;;;;;;;;;;;4956939;28;20429;-67
2023/12/09 07:37:15;;;;;;;46.17;17.83;;;;;;;;;;4955301;28;20353;-66
2023/12/09 07:39:42;;;;;;;40.50;18.02;;;;;;;;;;4955166;28;20084;-66
2023/12/09 07:42:16;;;;;;;40.70;17.23;;;;;;;;;;4960033;28;20059;-59
2023/12/09 07:44:43;;;;;;;48.13;19.08;;;;;;;;;;4957567;28;20046;-59
2023/12/09 07:47:11;;;;;;;46.70;18.23;;;;;;;;;;4956916;28;20043;-60
2023/12/09 07:49:45;;;;;;;48.47;20.30;;;;;;;;;;4959538;28;20053;-59
2023/12/09 07:52:12;;;;;;;49.45;19.58;;;;;;;;;;4960615;28;20055;-59
2023/12/09 07:54:40;;;;;;;54.38;20.52;;;;;;;;;;4957169;28;20149;-59
2023/12/09 07:57:14;;;;;;;51.25;21.58;;;;;;;;;;4955289;28;20059;-59
2023/12/09 07:59:41;;;;;;;;;;;;;;;;;;4961362;28;20125;-59
2023/12/09 08:02:15;;;;;;;44.72;18.73;;;;;;;;;;4961218;28;19934;-59
2023/12/09 08:04:42;;;;;;;42.80;18.67;;;;;;;;;;4957755;28;20055;-59
2023/12/09 08:07:16;;;;;;;44.85;18.30;;;;;;;;;;4953579;28;20059;-59
2023/12/09 08:09:43;;;;;;;41.28;18.10;;;;;;;;;;4956774;28;20077;-59
2023/12/09 08:12:10;;;;;;;42.55;18.45;;;;;;;;;;4957026;28;20081;-69
2023/12/09 08:14:44;;;;;;;39.90;17.95;;;;;;;;;;4951135;28;20125;-70
2023/12/09 08:17:24;;;;;;;40.90;17.20;;;;;;;;;;4956439;28;20055;-69
2023/12/09 08:19:58;;;;;;;40.17;16.58;;;;;;;;;;4973414;28;20065;-70
2023/12/09 08:22:25;;;;;;;45.50;17.52;;;;;;;;;;4974382;28;20042;-70
2023/12/09 08:24:53;;;;;;;41.88;19.20;;;;;;;;;;4968815;28;20463;-69
2023/12/09 08:27:27;;;;;;;47.10;18.73;;;;;;;;;;4974943;28;20108;-59
2023/12/09 08:29:54;;;;;;;42.38;17.17;;;;;;;;;;4978857;28;20074;-59
2023/12/09 08:32:28;;;;;;;33.28;14.35;;;;;;;;;;4976260;28;20116;-59
2023/12/09 08:34:56;;;;;;;44.83;17.48;;;;;;;;;;4958312;28;20488;-59
2023/12/09 08:37:35;;;;;;;42.38;18.10;;;;;;;;;;4976664;28;20089;-63
2023/12/09 08:40:11;;;;;;;37.97;17.63;;;;;;;;;;4976610;28;20059;-60
2023/12/09 08:42:39;;;;;;;42.58;17.98;;;;;;;;;;4972861;28;21075;-57
2023/12/09 08:45:09;;;;;;;40.67;17.85;;;;;;;;;;4976496;28;20054;-59
2023/12/09 08:47:43;;;;;;;41.00;18.48;;;;;;;;;;4972954;28;20193;-59
2023/12/09 08:50:12;;;;;;;38.95;19.00;;;;;;;;;;4979455;28;20073;-59
2023/12/09 08:52:54;;;;;;;38.55;15.57;;;;;;;;;;4976843;28;20047;-59
2023/12/09 08:55:22;;;;;;;42.53;16.83;;;;;;;;;;4978667;28;20082;-59
2023/12/09 08:57:59;;;;;;;42.58;16.00;;;;;;;;;;4974868;28;20058;-60
2023/12/09 09:00:27;;;;;;;47.65;17.88;;;;;;;;;;4976602;28;20069;-59
2023/12/09 09:02:55;;;;;;;41.58;18.90;;;;;;;;;;4975746;28;20525;-58
2023/12/09 09:05:29;;;;;;;40.10;17.60;;;;;;;;;;4979031;28;20054;-59
2023/12/09 09:07:57;;;;;;;40.03;17.65;;;;;;;;;;4970130;28;20066;-61
2023/12/09 09:10:24;;;;;;;40.95;17.73;;;;;;;;;;4975089;28;20608;-51
2023/12/09 09:12:59;;;;;;;44.67;17.30;;;;;;;;;;4974372;28;20108;-53
2023/12/09 09:15:27;;;;;;;38.55;14.45;;;;;;;;;;4963067;28;20109;-53
2023/12/09 09:17:54;;;;;;;39.42;16.63;;;;;;;;;;4977070;28;20054;-53
2023/12/09 09:20:36;;;;;;;40.95;17.55;;;;;;;;;;4980539;28;20066;-53
2023/12/09 09:23:03;;;;;;;36.42;15.45;;;;;;;;;;4974456;28;20160;-52
2023/12/09 09:25:37;;;;;;;41.75;18.42;;;;;;;;;;4977244;28;20136;-52
2023/12/09 09:28:04;;;;;;;32.75;15.00;;;;;;;;;;4976546;28;20054;-54
2023/12/09 09:30:31;;;;;;;40.70;17.15;;;;;;;;;;4979773;28;20063;-56
2023/12/09 09:33:06;;;;;;;40.42;17.05;;;;;;;;;;4975466;28;20270;-55
2023/12/09 09:35:33;;;;;;;41.88;18.10;;;;;;;;;;4976497;28;20166;-59
2023/12/09 09:38:07;;;;;;;30.98;15.32;;;;;;;;;;4975148;28;20053;-54
2023/12/09 09:40:35;;;;;;;36.30;16.40;;;;;;;;;;4980090;28;20054;-51
2023/12/09 09:43:07;;;;;;;36.90;16.50;;;;;;;;;;4976613;28;20592;-50
2023/12/09 09:45:43;;;;;;;40.25;16.85;;;;;;;;;;4980678;28;20054;-51
2023/12/09 09:48:12;;;;;;;38.80;16.65;;;;;;;;;;4978759;28;20520;-54
2023/12/09 09:50:51;;;;;;;38.45;17.45;;;;;;;;;;4980330;28;20060;-51
2023/12/09 09:53:24;;;;;;;40.97;18.33;;;;;;;;;;4982170;28;20061;-59
2023/12/09 09:55:58;;;;;;;29.15;13.10;;;;;;;;;;4978111;28;20109;-59
2023/12/09 09:58:26;;;;;;;40.85;17.73;;;;;;;;;;4978644;28;20058;-60
2023/12/09 10:00:55;;;;;;;38.65;18.55;;;;;;;;;;4973315;28;21324;-60
2023/12/09 10:03:29;;;;;;;39.03;19.02;;;;;;;;;;4978336;28;20065;-69
2023/12/09 10:06:04;;;;;;;31.67;15.10;;;;;;;;;;4973959;28;20082;-61
2023/12/09 10:08:31;;;;;;;37.47;15.57;;;;;;;;;;4981120;28;20062;-61
2023/12/09 10:10:59;;;;;;;37.03;16.10;;;;;;;;;;4981372;28;20108;-61
2023/12/09 10:13:33;;;;;;;36.45;14.45;;;;;;;;;;4981822;28;20085;-61
2023/12/09 10:16:00;;;;;;;;;;;;;;;;;;4981413;28;20050;-61
2023/12/09 10:18:42;;;;;;;40.90;15.13;;;;;;;;;;4973108;28;19972;-60
2023/12/09 10:21:16;;;;;;;35.42;16.00;;;;;;;;;;4976811;28;20058;-60
2023/12/09 10:23:50;;;;;;;39.65;16.42;;;;;;;;;;4977826;28;20140;-54
2023/12/09 10:26:18;;;;;;;;;;;;;;;;;;4976044;28;20057;-56
2023/12/09 10:28:45;;;;;;;36.35;15.55;;;;;;;;;;4978859;28;19968;-53
2023/12/09 10:31:19;;;;;;;32.88;15.90;;;;;;;;;;4975053;28;20737;-55
2023/12/09 10:33:46;;;;;;;37.78;17.08;;;;;;;;;;4978116;28;20058;-55
2023/12/09 10:36:14;;;;;;;;;;;;;;;;;;4978250;28;21223;-52
2023/12/09 10:38:47;;;;;;;34.75;15.02;;;;;;;;;;4974723;28;20387;-53
2023/12/09 10:41:16;;;;;;;39.67;16.20;;;;;;;;;;4969824;28;20202;-58
2023/12/09 10:43:50;;;;;;;34.42;15.70;;;;;;;;;;4981674;28;20108;-57
2023/12/09 10:46:17;;;;;;;41.92;17.23;;;;;;;;;;4972685;28;20116;-59
2023/12/09 10:48:44;;;;;;;33.50;15.55;;;;;;;;;;4964157;28;20062;-60
2023/12/09 10:51:19;;;;;;;35.00;15.27;;;;;;;;;;4978576;28;20522;-60
2023/12/09 10:53:46;;;;;;;39.05;16.67;;;;;;;;;;4972650;28;20050;-60
2023/12/09 10:56:21;;;;;;;37.80;17.23;;;;;;;;;;4973445;28;20430;-59
2023/12/09 10:58:49;;;;;;;39.92;16.55;;;;;;;;;;4979698;28;20062;-49
2023/12/09 11:01:16;;;;;;;42.30;18.00;;;;;;;;;;4971131;28;20197;-60
2023/12/09 11:03:50;;;;;;;38.72;16.50;;;;;;;;;;4974352;28;20478;-60
2023/12/09 11:06:18;;;;;;;37.83;17.35;;;;;;;;;;4977528;28;20058;-59
2023/12/09 11:08:46;;;;;;;44.63;19.20;;;;;;;;;;4977185;28;20092;-61
2023/12/09 11:11:20;;;;;;;38.55;16.98;;;;;;;;;;4974717;28;20062;-60
2023/12/09 11:13:48;;;;;;;;;;;;;;;;;;4978000;28;20513;-60
2023/12/09 11:16:22;;;;;;;42.13;17.35;;;;;;;;;;4980826;28;19991;-59
2023/12/09 11:19:00;;;;;;;35.40;13.05;;;;;;;;;;4978488;28;20161;-60
2023/12/09 11:21:43;;;;;;;40.30;16.77;;;;;;;;;;4976258;28;20437;-56
2023/12/09 11:24:11;;;;;;;36.10;15.20;;;;;;;;;;4975607;28;20050;-51
2023/12/09 11:26:46;;;;;;;39.72;16.63;;;;;;;;;;4975399;28;20054;-52
2023/12/09 11:29:17;;;;;;;35.45;16.48;;;;;;;;;;4975370;28;20337;-55
2023/12/09 11:31:46;;;;;;;37.33;15.88;;;;;;;;;;4978796;28;20150;-54
2023/12/09 11:34:21;;;;;;;39.67;16.52;;;;;;;;;;4976990;28;20299;-51
2023/12/09 11:36:51;;;;;;;37.53;16.42;;;;;;;;;;4975312;28;20062;-61
2023/12/09 11:39:27;;;;;;;34.80;14.85;;;;;;;;;;4975806;28;20470;-52
2023/12/09 11:41:54;;;;;;;37.58;16.40;;;;;;;;;;4976859;28;20069;-52
2023/12/09 11:44:22;;;;;;;35.30;15.68;;;;;;;;;;4972741;28;20086;-50
2023/12/09 11:46:56;;;;;;;39.13;16.67;;;;;;;;;;4974805;28;20761;-54
2023/12/09 11:49:26;;;;;;;38.55;17.00;;;;;;;;;;4975716;28;20054;-50
2023/12/09 11:52:00;;;;;;;43.10;17.27;;;;;;;;;;4975648;28;20513;-51
2023/12/09 11:54:27;;;;;;;36.47;17.08;;;;;;;;;;4977760;28;20324;-65
2023/12/09 11:56:55;;;;;;;42.65;17.27;;;;;;;;;;4973443;28;20058;-66
2023/12/09 11:59:29;;;;;;;38.17;16.52;;;;;;;;;;4974078;28;20054;-65
2023/12/09 12:01:56;;;;;;;;;;;;;;;;;;4988844;28;20208;-65
2023/12/09 12:04:33;;;;;;;33.58;14.85;;;;;;;;;;4965299;28;20223;-66
2023/12/09 12:07:04;;;;;;;34.60;15.50;;;;;;;;;;4972066;28;20066;-72
2023/12/09 12:09:39;;;;;;;30.30;15.02;;;;;;;;;;4970215;28;20141;-72
2023/12/09 12:12:12;;;;;;;34.75;15.48;;;;;;;;;;4970071;28;20057;-72
2023/12/09 12:14:39;;;;;;;28.80;13.25;;;;;;;;;;4972152;28;20070;-72
2023/12/09 12:17:13;;;;;;;29.27;13.95;;;;;;;;;;4975373;28;21020;-72
2023/12/09 12:19:51;;;;;;;37.50;15.52;;;;;;;;;;4968721;28;20393;-72
2023/12/09 12:22:25;;;;;;;32.13;15.02;;;;;;;;;;4971019;28;20047;-72
2023/12/09 12:24:54;;;;;;;32.92;15.60;;;;;;;;;;4970460;28;20054;-60
2023/12/09 12:27:21;;;;;;;29.15;13.77;;;;;;;;;;4968511;28;20538;-59
2023/12/09 12:29:55;;;;;;;32.15;14.02;;;;;;;;;;4972011;28;20483;-60
2023/12/09 12:32:22;;;;;;;26.80;12.90;;;;;;;;;;4973892;28;20065;-60
2023/12/09 12:34:57;;;;;;;28.10;13.30;;;;;;;;;;4971004;28;20636;-59
2023/12/09 12:37:24;;;;;;;34.25;14.07;;;;;;;;;;4972574;28;20058;-59
2023/12/09 12:39:58;;;;;;;31.15;13.90;;;;;;;;;;4968268;28;20572;-61
2023/12/09 12:42:25;;;;;;;26.23;12.98;;;;;;;;;;4966045;28;20113;-61
2023/12/09 12:44:53;;;;;;;27.52;12.95;;;;;;;;;;4973217;28;20094;-61
2023/12/09 12:47:27;;;;;;;33.20;14.52;;;;;;;;;;4976500;28;20057;-61
2023/12/09 12:50:15;;;;;;;29.60;13.95;;;;;;;;;;4968941;28;20184;-61
2023/12/09 12:53:09;;;;;;;32.80;14.25;;;;;;;;;;4971240;28;20502;-61
2023/12/09 12:55:56;;;;;;;22.88;10.07;;;;;;;;;;4969677;28;20047;-61
2023/12/09 12:58:50;;;;;;;31.42;14.65;;;;;;;;;;4962418;28;20057;-61
2023/12/09 13:01:44;;;;;;;36.70;15.35;;;;;;;;;;4966857;28;20058;-60
2023/12/09 13:04:31;;;;;;;33.33;13.80;;;;;;;;;;4971714;28;20085;-59
2023/12/09 13:07:26;;;;;;;37.03;15.70;;;;;;;;;;4972136;28;20074;-59
2023/12/09 13:10:12;;;;;;;37.40;16.23;;;;;;;;;;4968111;28;20057;-60
2023/12/09 13:13:06;;;;;;;33.00;15.88;;;;;;;;;;4971569;28;20062;-58
2023/12/09 13:15:54;;;;;;;31.73;14.40;;;;;;;;;;4976258;28;20116;-57
2023/12/09 13:19:00;;;;;;;38.90;16.33;;;;;;;;;;4970141;28;20053;-61
2023/12/09 13:21:55;;;;;;;35.97;15.10;;;;;;;;;;4979043;28;20152;-52
2023/12/09 13:24:50;;;;;;;34.53;14.80;;;;;;;;;;4975317;28;20581;-51
2023/12/09 13:27:36;;;;;;;32.92;15.43;;;;;;;;;;4977548;28;22016;-56
2023/12/09 13:30:29;;;;;;;36.88;15.77;;;;;;;;;;4977814;28;20066;-54
2023/12/09 13:33:17;;;;;;;39.03;14.85;;;;;;;;;;4978492;28;20684;-53
2023/12/09 13:36:12;;;;;;;34.50;15.90;;;;;;;;;;4980263;28;20054;-60
2023/12/09 13:38:58;;;;;;;39.13;16.50;;;;;;;;;;4980293;28;20054;-59
2023/12/09 13:41:52;;;;;;;37.13;16.60;;;;;;;;;;4981851;28;20050;-59
2023/12/09 13:44:40;;;;;;;34.60;15.60;;;;;;;;;;4979148;28;20577;-59
2023/12/09 13:47:34;;;;;;;37.33;16.13;;;;;;;;;;4978197;28;20050;-60
2023/12/09 13:50:22;;;;;;;37.50;15.73;;;;;;;;;;4981454;28;20053;-58
2023/12/09 13:53:16;;;;;;;29.30;13.77;;;;;;;;;;4982595;28;20053;-59
2023/12/09 13:56:04;;;;;;;35.10;14.60;;;;;;;;;;4975997;28;20533;-61
2023/12/09 13:58:57;;;;;;;29.58;14.07;;;;;;;;;;4976369;28;20062;-59
2023/12/09 14:01:51;;;;;;;31.73;13.73;;;;;;;;;;4979523;28;20113;-59
2023/12/09 14:04:45;;;;;;;31.30;14.02;;;;;;;;;;4975188;28;20061;-59
2023/12/09 14:07:32;;;;;;;30.77;14.30;;;;;;;;;;4978475;28;20421;-57
2023/12/09 14:10:26;;;;;;;29.75;12.80;;;;;;;;;;4977301;28;20486;-59
2023/12/09 14:13:14;;;;;;;29.67;14.48;;;;;;;;;;4973457;28;20591;-58
2023/12/09 14:16:09;;;;;;;30.90;13.98;;;;;;;;;;4975772;28;20596;-52
2023/12/09 14:19:10;;;;;;;31.77;14.95;;;;;;;;;;4976780;28;20065;-52
2023/12/09 14:22:02;;;;;;;24.55;10.20;;;;;;;;;;4976712;28;20066;-50
2023/12/09 14:24:56;;;;;;;33.00;13.55;;;;;;;;;;4974952;28;20062;-49
2023/12/09 14:27:43;;;;;;;27.75;12.23;;;;;;;;;;4975176;28;20051;-49
2023/12/09 14:30:37;;;;;;;34.08;15.18;;;;;;;;;;4972185;28;20100;-59
2023/12/09 14:33:24;;;;;;;36.65;16.27;;;;;;;;;;4975961;28;20061;-54
2023/12/09 14:35:58;;;;;;;36.85;15.90;;;;;;;;;;4977554;28;20061;-56
2023/12/09 14:38:26;;;;;;;30.92;14.60;;;;;;;;;;4978141;28;20058;-54
2023/12/09 14:40:53;;;;;;;35.33;15.38;;;;;;;;;;4978193;28;20057;-56
2023/12/09 14:43:27;;;;;;;34.55;16.17;;;;;;;;;;4980604;28;20058;-53
2023/12/09 14:45:54;;;;;;;38.58;16.35;;;;;;;;;;4976602;28;20117;-52
2023/12/09 14:48:28;;;;;;;31.55;14.57;;;;;;;;;;4978475;28;20117;-70
2023/12/09 14:50:58;;;;;;;34.80;14.60;;;;;;;;;;4979708;28;20074;-70
2023/12/09 14:53:26;;;;;;;32.00;14.20;;;;;;;;;;4972939;28;20058;-70
2023/12/09 14:56:00;;;;;;;39.83;15.05;;;;;;;;;;4975933;28;20058;-71
2023/12/09 14:58:28;;;;;;;41.38;15.95;;;;;;;;;;4975414;28;20047;-65
2023/12/09 15:01:01;;;;;;;35.67;15.25;;;;;;;;;;4979156;28;20582;-60
2023/12/09 15:03:29;;;;;;;;;;;;;;;;;;4977138;28;20509;-59
2023/12/09 15:06:04;;;;;;;32.78;14.50;;;;;;;;;;4974016;28;19972;-59
2023/12/09 15:08:31;;;;;;;34.08;13.85;;;;;;;;;;4975891;28;20058;-58
2023/12/09 15:11:06;;;;;;;30.23;12.70;;;;;;;;;;4977425;28;22108;-58
2023/12/09 15:13:33;;;;;;;28.73;11.80;;;;;;;;;;4976019;28;20061;-57
2023/12/09 15:16:00;;;;;;;;;;;;;;;;;;4976208;28;20050;-58